createdAt,value
2019-04-20T00:01:50.592Z,18.73
2019-04-20T00:04:24.729Z,19.00
2019-04-20T00:06:54.274Z,18.60
2019-04-20T00:09:26.573Z,21.30
2019-04-20T00:12:03.848Z,19.53
2019-04-20T00:14:29.592Z,16.73
2019-04-20T00:16:56.905Z,17.97
2019-04-20T00:19:35.393Z,17.87
2019-04-20T00:22:14.908Z,25.73
2019-04-20T00:25:04.044Z,21.17
2019-04-20T00:27:52.080Z,18.23
2019-04-20T00:30:25.039Z,20.30
2019-04-20T00:32:47.902Z,16.00
2019-04-20T00:35:06.356Z,17.50
2019-04-20T00:37:36.201Z,16.57
2019-04-20T00:40:07.791Z,20.33
2019-04-20T00:42:45.240Z,23.07
2019-04-20T00:45:15.959Z,25.30
2019-04-20T00:47:47.880Z,18.53
2019-04-20T00:50:29.844Z,20.77
2019-04-20T00:52:55.521Z,20.23
2019-04-20T00:55:15.336Z,21.93
2019-04-20T00:57:53.035Z,18.33
2019-04-20T01:00:31.288Z,16.83
2019-04-20T01:03:01.250Z,17.50
2019-04-20T01:05:58.440Z,16.30
2019-04-20T01:08:11.191Z,18.63
2019-04-20T01:10:47.736Z,19.63
2019-04-20T01:13:17.331Z,16.00
2019-04-20T01:15:51.649Z,19.33
2019-04-20T01:18:16.384Z,17.30
2019-04-20T01:20:47.267Z,17.80
2019-04-20T01:23:20.940Z,13.83
2019-04-20T01:25:55.813Z,18.63
2019-04-20T01:28:37.546Z,15.83
2019-04-20T01:31:00.213Z,17.07
2019-04-20T01:33:32.054Z,18.33
2019-04-20T01:36:10.398Z,16.33
2019-04-20T01:38:40.119Z,16.13
2019-04-20T01:40:57.076Z,16.60
2019-04-20T01:43:29.050Z,18.13
2019-04-20T01:46:04.779Z,15.20
2019-04-20T01:48:34.043Z,14.00
2019-04-20T01:51:07.209Z,18.90
2019-04-20T01:53:58.476Z,14.90
2019-04-20T01:56:18.103Z,22.17
2019-04-20T01:59:02.690Z,15.27
2019-04-20T02:01:34.310Z,16.57
2019-04-20T02:04:15.781Z,17.37
2019-04-20T02:06:48.121Z,19.87
2019-04-20T02:09:18.708Z,16.37
2019-04-20T02:11:47.353Z,14.63
2019-04-20T02:14:26.618Z,20.40
2019-04-20T02:16:52.750Z,19.87
2019-04-20T02:19:30.693Z,13.37
2019-04-20T02:22:02.623Z,16.27
2019-04-20T02:24:21.565Z,19.90
2019-04-20T02:26:51.923Z,15.17
2019-04-20T02:29:44.303Z,19.30
2019-04-20T02:35:09.341Z,16.90
2019-04-20T02:37:56.610Z,16.10
2019-04-20T02:40:15.928Z,18.20
2019-04-20T02:45:27.825Z,22.93
2019-04-20T02:48:14.099Z,19.30
2019-04-20T02:50:20.691Z,16.87
2019-04-20T02:52:56.504Z,20.50
2019-04-20T02:55:23.517Z,19.83
2019-04-20T03:00:17.818Z,28.80
2019-04-20T03:02:41.576Z,24.10
2019-04-20T03:05:10.251Z,21.07
2019-04-20T03:07:50.336Z,22.10
2019-04-20T03:10:18.874Z,20.37
2019-04-20T03:12:50.539Z,20.00
2019-04-20T03:15:22.153Z,23.07
2019-04-20T03:17:51.237Z,22.60
2019-04-20T03:20:32.003Z,24.57
2019-04-20T03:23:17.486Z,23.63
2019-04-20T03:25:53.442Z,24.57
2019-04-20T03:28:21.587Z,24.67
2019-04-20T03:34:03.474Z,25.17
2019-04-20T03:36:12.440Z,28.47
2019-04-20T03:38:33.090Z,21.53
2019-04-20T03:40:57.419Z,23.93
2019-04-20T03:43:13.918Z,22.03
2019-04-20T03:45:51.822Z,24.40
2019-04-20T03:48:33.693Z,23.30
2019-04-20T03:51:08.966Z,23.10
2019-04-20T03:53:39.495Z,26.10
2019-04-20T03:56:34.878Z,24.80
2019-04-20T03:59:14.085Z,25.23
2019-04-20T04:02:15.003Z,24.70
2019-04-20T04:04:33.911Z,29.00
2019-04-20T04:06:49.920Z,23.70
2019-04-20T04:09:25.688Z,26.17
2019-04-20T04:11:58.498Z,27.67
2019-04-20T04:14:17.751Z,32.20
2019-04-20T04:16:51.306Z,26.83
2019-04-20T04:19:25.186Z,33.50
2019-04-20T04:22:07.520Z,24.33
2019-04-20T04:24:31.428Z,24.03
2019-04-20T04:27:05.711Z,27.17
2019-04-20T04:29:44.206Z,30.20
2019-04-20T04:32:21.097Z,24.37
2019-04-20T04:34:45.890Z,27.20
2019-04-20T04:37:17.714Z,27.50
2019-04-20T04:39:56.054Z,24.97
2019-04-20T04:42:22.285Z,27.60
2019-04-20T04:44:43.311Z,23.80
2019-04-20T04:47:08.378Z,31.60
2019-04-20T04:49:40.054Z,31.63
2019-04-20T04:52:12.650Z,23.77
2019-04-20T04:54:47.515Z,24.33
2019-04-20T04:57:09.828Z,23.40
2019-04-20T04:59:40.363Z,23.97
2019-04-20T05:02:09.928Z,29.10
2019-04-20T05:05:18.014Z,26.90
2019-04-20T05:07:43.738Z,24.27
2019-04-20T05:10:03.557Z,20.73
2019-04-20T05:12:35.069Z,21.60
2019-04-20T05:15:14.380Z,23.70
2019-04-20T05:18:00.210Z,25.40
2019-04-20T05:20:31.719Z,19.07
2019-04-20T05:23:08.535Z,22.17
2019-04-20T05:26:01.764Z,20.57
2019-04-20T05:28:24.349Z,21.03
2019-04-20T05:30:51.980Z,21.43
2019-04-20T05:33:27.869Z,18.13
2019-04-20T05:36:09.942Z,22.40
2019-04-20T05:38:41.996Z,28.90
2019-04-20T05:41:11.738Z,22.07
2019-04-20T05:43:41.484Z,21.20
2019-04-20T05:46:24.458Z,29.10
2019-04-20T05:48:50.514Z,22.80
2019-04-20T05:51:25.625Z,23.40
2019-04-20T05:53:52.025Z,24.63
2019-04-20T05:56:30.494Z,19.10
2019-04-20T05:58:58.068Z,22.10
2019-04-20T06:01:25.004Z,21.83
2019-04-20T06:03:56.815Z,23.93
2019-04-20T06:06:35.466Z,20.63
2019-04-20T06:09:05.488Z,20.83
2019-04-20T06:11:32.567Z,22.47
2019-04-20T06:13:59.933Z,20.17
2019-04-20T06:16:45.223Z,19.27
2019-04-20T06:19:24.366Z,19.60
2019-04-20T06:21:52.931Z,19.80
2019-04-20T06:24:28.979Z,22.07
2019-04-20T06:29:23.907Z,21.97
2019-04-20T06:31:59.344Z,21.50
2019-04-20T06:34:33.414Z,21.90
2019-04-20T06:37:01.011Z,19.00
2019-04-20T06:39:40.416Z,19.90
2019-04-20T06:42:09.838Z,22.47
2019-04-20T06:44:37.037Z,23.67
2019-04-20T06:47:15.816Z,24.33
2019-04-20T06:49:51.612Z,23.40
2019-04-20T06:52:34.411Z,23.17
2019-04-20T06:54:54.748Z,21.97
2019-04-20T06:57:29.199Z,22.10
2019-04-20T07:00:05.807Z,22.73
2019-04-20T07:04:59.370Z,21.07
2019-04-20T07:07:29.876Z,23.00
2019-04-20T07:12:33.170Z,22.27
2019-04-20T07:14:55.499Z,22.50
2019-04-20T07:17:45.534Z,22.90
2019-04-20T07:20:09.855Z,23.70
2019-04-20T07:23:11.945Z,21.77
2019-04-20T07:25:19.353Z,20.07
2019-04-20T07:27:53.603Z,22.43
2019-04-20T07:30:19.350Z,25.93
2019-04-20T07:32:58.007Z,21.30
2019-04-20T07:35:25.652Z,49.37
2019-04-20T07:38:21.297Z,38.60
2019-04-20T07:40:24.699Z,25.70
2019-04-20T07:42:58.938Z,21.87
2019-04-20T07:45:33.177Z,22.10
2019-04-20T07:48:07.809Z,27.87
2019-04-20T07:50:25.074Z,32.33
2019-04-20T07:52:58.614Z,26.73
2019-04-20T07:55:47.526Z,25.17
2019-04-20T07:58:02.571Z,21.60
2019-04-20T08:00:48.598Z,27.43
2019-04-20T08:03:20.144Z,21.27
2019-04-20T08:05:39.255Z,19.43
2019-04-20T08:08:21.013Z,24.90
2019-04-20T08:10:51.065Z,20.00
2019-04-20T08:16:00.629Z,22.40
2019-04-20T08:18:27.164Z,20.83
2019-04-20T08:20:59.620Z,25.33
2019-04-20T08:23:29.969Z,19.40
2019-04-20T08:25:49.787Z,23.03
2019-04-20T08:28:34.970Z,18.80
2019-04-20T08:31:26.912Z,22.00
2019-04-20T08:34:15.168Z,21.77
2019-04-20T08:36:40.518Z,25.33
2019-04-20T08:41:38.511Z,24.70
2019-04-20T08:46:49.515Z,17.67
2019-04-20T08:49:17.367Z,23.63
2019-04-20T08:51:49.614Z,23.23
2019-04-20T08:54:14.070Z,18.70
2019-04-20T08:56:38.277Z,19.23
2019-04-20T08:58:59.509Z,19.87
2019-04-20T09:01:33.815Z,22.50
2019-04-20T09:04:09.751Z,19.40
2019-04-20T09:06:47.017Z,20.73
2019-04-20T09:09:31.835Z,23.47
2019-04-20T09:11:55.524Z,17.60
2019-04-20T09:14:21.293Z,24.50
2019-04-20T09:17:01.536Z,23.40
2019-04-20T09:19:36.755Z,26.93
2019-04-20T09:22:14.746Z,19.23
2019-04-20T09:24:51.474Z,29.57
2019-04-20T09:27:15.691Z,29.67
2019-04-20T09:29:40.715Z,18.53
2019-04-20T09:32:31.258Z,21.73
2019-04-20T09:35:09.799Z,21.73
2019-04-20T09:37:43.321Z,25.43
2019-04-20T09:40:28.286Z,19.13
2019-04-20T09:42:39.565Z,20.30
2019-04-20T09:45:18.084Z,19.07
2019-04-20T09:47:47.860Z,20.27
2019-04-20T09:50:31.829Z,19.40
2019-04-20T09:53:02.470Z,20.70
2019-04-20T09:55:29.438Z,30.93
2019-04-20T09:58:01.495Z,18.73
2019-04-20T10:00:38.399Z,24.10
2019-04-20T10:02:52.633Z,18.47
2019-04-20T10:05:23.272Z,18.33
2019-04-20T10:07:55.989Z,23.30
2019-04-20T10:10:31.375Z,23.70
2019-04-20T10:12:56.392Z,23.30
2019-04-20T10:15:27.853Z,18.33
2019-04-20T10:17:57.191Z,27.13
2019-04-20T10:20:30.927Z,18.73
2019-04-20T10:22:58.454Z,19.57
2019-04-20T10:25:28.696Z,20.53
2019-04-20T10:27:58.379Z,22.83
2019-04-20T10:30:28.493Z,20.60
2019-04-20T10:32:59.390Z,19.60
2019-04-20T10:35:29.724Z,23.93
2019-04-20T10:38:05.306Z,28.63
2019-04-20T10:40:46.361Z,19.07
2019-04-20T10:43:08.040Z,25.03
2019-04-20T10:45:37.598Z,21.00
2019-04-20T10:48:07.129Z,21.23
2019-04-20T10:50:36.829Z,20.63
2019-04-20T10:53:07.842Z,21.80
2019-04-20T10:55:37.775Z,18.37
2019-04-20T10:58:07.458Z,28.73
2019-04-20T11:00:43.819Z,32.07
2019-04-20T11:03:15.704Z,17.23
2019-04-20T11:05:46.768Z,19.80
2019-04-20T11:08:16.860Z,16.10
2019-04-20T11:10:57.921Z,14.90
2019-04-20T11:13:19.295Z,21.83
2019-04-20T11:15:48.944Z,13.27
2019-04-20T11:18:21.740Z,15.43
2019-04-20T11:20:57.418Z,15.50
2019-04-20T11:23:28.652Z,16.43
2019-04-20T11:25:58.511Z,15.43
2019-04-20T11:28:28.216Z,14.43
2019-04-20T11:30:58.534Z,17.20
2019-04-20T11:33:29.926Z,16.80
2019-04-20T11:36:01.114Z,16.00
2019-04-20T11:38:30.781Z,20.17
2019-04-20T11:41:10.606Z,18.13
2019-04-20T11:43:31.626Z,13.33
2019-04-20T11:46:01.130Z,19.80
2019-04-20T11:48:31.701Z,17.33
2019-04-20T11:51:01.424Z,12.90
2019-04-20T11:53:32.274Z,16.20
2019-04-20T11:56:02.550Z,17.77
2019-04-20T11:58:33.143Z,16.73
2019-04-20T12:01:11.055Z,16.17
2019-04-20T12:03:47.872Z,13.77
2019-04-20T12:06:08.636Z,17.43
2019-04-20T12:08:41.924Z,17.23
2019-04-20T12:11:23.060Z,15.20
2019-04-20T12:13:42.724Z,13.40
2019-04-20T12:16:12.385Z,16.03
2019-04-20T12:18:42.140Z,16.43
2019-04-20T12:21:12.749Z,16.20
2019-04-20T12:23:42.486Z,16.77
2019-04-20T12:26:13.051Z,14.20
2019-04-20T12:28:43.366Z,12.93
2019-04-20T12:31:19.619Z,15.47
2019-04-20T12:33:44.349Z,15.80
2019-04-20T12:36:14.732Z,15.53
2019-04-20T12:38:46.173Z,15.90
2019-04-20T12:41:16.153Z,15.33
2019-04-20T12:43:45.892Z,14.50
2019-04-20T12:46:18.287Z,15.93
2019-04-20T12:48:47.424Z,14.43
2019-04-20T12:51:17.560Z,14.63
2019-04-20T12:53:48.462Z,15.90
2019-04-20T12:56:18.385Z,13.13
2019-04-20T12:58:49.412Z,15.60
2019-04-20T13:01:21.088Z,17.70
2019-04-20T13:03:50.314Z,19.27
2019-04-20T13:06:21.480Z,16.47
2019-04-20T13:08:55.524Z,17.97
2019-04-20T13:11:38.558Z,22.00
2019-04-20T13:14:34.665Z,15.93
2019-04-20T13:17:04.266Z,14.63
2019-04-20T13:19:35.160Z,17.43
2019-04-20T13:22:05.349Z,14.30
2019-04-20T13:24:34.937Z,17.20
2019-04-20T13:27:04.825Z,16.23
2019-04-20T13:29:35.089Z,15.90
2019-04-20T13:32:05.466Z,16.23
2019-04-20T13:34:36.100Z,15.27
2019-04-20T13:37:06.404Z,19.47
2019-04-20T13:39:36.048Z,17.30
2019-04-20T13:42:12.116Z,19.40
2019-04-20T13:44:36.975Z,12.70
2019-04-20T13:47:07.250Z,14.23
2019-04-20T13:49:37.129Z,15.63
2019-04-20T13:52:06.891Z,13.53
2019-04-20T13:54:37.979Z,13.00
2019-04-20T13:57:10.024Z,12.30
2019-04-20T13:59:44.075Z,11.63
2019-04-20T14:02:33.092Z,20.97
2019-04-20T14:05:04.674Z,14.60
2019-04-20T14:07:35.643Z,16.80
2019-04-20T14:10:06.800Z,17.70
2019-04-20T14:12:39.324Z,13.43
2019-04-20T14:15:09.092Z,12.43
2019-04-20T14:17:39.204Z,10.20
2019-04-20T14:20:15.044Z,17.33
2019-04-20T14:22:41.102Z,13.13
2019-04-20T14:25:11.178Z,13.70
2019-04-20T14:27:40.762Z,10.20
2019-04-20T14:30:11.361Z,14.77
2019-04-20T14:32:40.983Z,18.70
2019-04-20T14:35:11.341Z,11.97
2019-04-20T14:37:41.663Z,11.60
2019-04-20T14:40:12.602Z,10.67
2019-04-20T14:42:47.782Z,26.23
2019-04-20T14:45:14.493Z,12.30
2019-04-20T14:47:44.062Z,11.10
2019-04-20T14:50:17.918Z,12.37
2019-04-20T14:52:47.700Z,13.77
2019-04-20T14:55:19.137Z,10.70
2019-04-20T14:57:49.786Z,14.00
2019-04-20T15:00:45.797Z,11.93
2019-04-20T15:03:36.727Z,11.60
2019-04-20T15:06:05.506Z,13.10
2019-04-20T15:08:36.630Z,10.83
2019-04-20T15:11:07.321Z,20.90
2019-04-20T15:13:38.500Z,14.13
2019-04-20T15:16:08.669Z,15.73
2019-04-20T15:18:54.644Z,19.13
2019-04-20T15:21:27.127Z,15.53
2019-04-20T15:23:57.477Z,16.10
2019-04-20T15:26:27.122Z,12.47
2019-04-20T15:28:56.714Z,15.30
2019-04-20T15:31:26.442Z,24.80
2019-04-20T15:33:57.068Z,13.13
2019-04-20T15:36:28.363Z,15.17
2019-04-20T15:38:59.018Z,20.13
2019-04-20T15:41:29.435Z,20.10
2019-04-20T15:43:59.496Z,11.37
2019-04-20T15:46:31.346Z,18.57
2019-04-20T15:49:01.905Z,13.10
2019-04-20T15:51:31.998Z,14.20
2019-04-20T15:54:01.971Z,16.40
2019-04-20T15:56:31.624Z,20.07
2019-04-20T15:59:02.250Z,14.00
2019-04-20T16:01:36.631Z,18.20
2019-04-20T16:04:11.796Z,20.33
2019-04-20T16:06:39.283Z,18.93
2019-04-20T16:09:10.333Z,17.43
2019-04-20T16:11:41.176Z,15.80
2019-04-20T16:14:10.875Z,21.63
2019-04-20T16:16:40.462Z,15.03
2019-04-20T16:19:26.787Z,22.60
2019-04-20T16:21:43.696Z,16.37
2019-04-20T16:24:15.014Z,38.13
2019-04-20T16:26:47.433Z,27.77
2019-04-20T16:29:17.694Z,29.03
2019-04-20T16:31:49.078Z,22.97
2019-04-20T16:34:19.264Z,34.20
2019-04-20T16:36:51.712Z,23.67
2019-04-20T16:39:20.487Z,22.43
2019-04-20T16:41:50.705Z,36.70
2019-04-20T16:44:21.040Z,20.47
2019-04-20T16:46:52.064Z,15.80
2019-04-20T16:49:23.279Z,36.00
2019-04-20T16:51:53.004Z,32.50
2019-04-20T16:54:27.994Z,36.30
2019-04-20T16:56:58.051Z,21.10
2019-04-20T16:59:28.298Z,18.60
2019-04-20T17:01:58.248Z,20.40
2019-04-20T17:04:29.033Z,16.17
2019-04-20T17:07:16.555Z,15.47
2019-04-20T17:09:47.924Z,14.07
2019-04-20T17:12:17.787Z,18.00
2019-04-20T17:14:47.662Z,21.00
2019-04-20T17:17:17.738Z,22.00
2019-04-20T17:19:47.496Z,16.67
2019-04-20T17:22:17.404Z,21.57
2019-04-20T17:24:47.248Z,18.37
2019-04-20T17:27:24.432Z,15.90
2019-04-20T17:30:13.008Z,21.07
2019-04-20T17:32:43.527Z,18.50
2019-04-20T17:35:27.442Z,20.43
2019-04-20T17:37:46.997Z,22.20
2019-04-20T17:40:38.175Z,28.90
2019-04-20T17:43:01.704Z,18.30
2019-04-20T17:45:28.816Z,21.07
2019-04-20T17:48:06.514Z,30.10
2019-04-20T17:50:41.515Z,27.50
2019-04-20T17:53:07.482Z,24.83
2019-04-20T17:55:41.023Z,22.30
2019-04-20T17:58:12.092Z,25.27
2019-04-20T18:00:54.781Z,24.93
2019-04-20T18:03:58.879Z,23.73
2019-04-20T18:06:15.924Z,26.97
2019-04-20T18:08:46.822Z,23.70
2019-04-20T18:11:07.694Z,22.63
2019-04-20T18:13:33.669Z,28.40
2019-04-20T18:16:29.697Z,23.93
2019-04-20T18:19:03.218Z,27.10
2019-04-20T18:21:30.755Z,29.63
2019-04-20T18:24:00.456Z,30.40
2019-04-20T18:26:50.678Z,22.03
2019-04-20T18:29:20.242Z,32.07
2019-04-20T18:31:41.774Z,30.80
2019-04-20T18:34:17.943Z,32.03
2019-04-20T18:36:47.264Z,31.97
2019-04-20T18:39:18.074Z,39.53
2019-04-20T18:41:53.203Z,26.53
2019-04-20T18:44:21.087Z,25.23
2019-04-20T18:47:21.675Z,31.53
2019-04-20T18:49:38.621Z,27.83
2019-04-20T18:51:56.023Z,24.27
2019-04-20T18:54:32.150Z,29.03
2019-04-20T18:56:59.799Z,28.90
2019-04-20T18:59:35.940Z,36.83
2019-04-20T19:02:01.243Z,52.07
2019-04-20T19:04:31.922Z,50.63
2019-04-20T19:07:03.635Z,67.47
2019-04-20T19:09:34.756Z,62.97
2019-04-20T19:12:09.088Z,42.17
2019-04-20T19:14:49.927Z,38.13
2019-04-20T19:17:49.349Z,37.20
2019-04-20T19:20:14.066Z,34.03
2019-04-20T19:22:44.111Z,85.43
2019-04-20T19:25:19.837Z,277.53
2019-04-20T19:27:50.865Z,144.33
2019-04-20T19:30:27.391Z,102.67
2019-04-20T19:33:08.946Z,61.13
2019-04-20T19:35:34.978Z,60.97
2019-04-20T19:38:04.271Z,52.63
2019-04-20T19:40:33.651Z,42.27
2019-04-20T19:43:08.464Z,35.57
2019-04-20T19:45:51.266Z,25.20
2019-04-20T19:48:12.394Z,20.47
2019-04-20T19:51:08.456Z,16.13
2019-04-20T19:53:24.675Z,26.20
2019-04-20T19:55:43.888Z,17.00
2019-04-20T19:58:19.250Z,29.33
2019-04-20T20:00:51.241Z,16.40
2019-04-20T20:03:19.800Z,18.77
2019-04-20T20:05:51.823Z,19.00
2019-04-20T20:08:24.489Z,16.37
2019-04-20T20:10:52.628Z,19.30
2019-04-20T20:13:27.710Z,14.80
2019-04-20T20:16:02.453Z,19.87
2019-04-20T20:18:39.179Z,16.50
2019-04-20T20:21:12.240Z,32.50
2019-04-20T20:23:29.974Z,22.17
2019-04-20T20:26:02.320Z,29.60
2019-04-20T20:28:40.611Z,18.70
2019-04-20T20:31:13.485Z,16.07
2019-04-20T20:33:53.383Z,15.23
2019-04-20T20:36:13.993Z,13.30
2019-04-20T20:38:43.004Z,21.30
2019-04-20T20:41:18.366Z,27.70
2019-04-20T20:43:53.574Z,19.33
2019-04-20T20:46:25.476Z,13.23
2019-04-20T20:49:04.856Z,11.73
2019-04-20T20:51:37.818Z,11.03
2019-04-20T20:53:56.444Z,13.83
2019-04-20T20:56:24.140Z,14.27
2019-04-20T20:58:59.637Z,14.07
2019-04-20T21:01:23.748Z,10.90
2019-04-20T21:03:53.004Z,11.00
2019-04-20T21:06:22.422Z,14.63
2019-04-20T21:08:56.009Z,11.67
2019-04-20T21:11:27.497Z,17.83
2019-04-20T21:13:55.736Z,10.53
2019-04-20T21:16:31.516Z,11.63
2019-04-20T21:19:15.851Z,12.30
2019-04-20T21:21:42.268Z,12.90
2019-04-20T21:24:07.551Z,10.87
2019-04-20T21:26:37.597Z,10.83
2019-04-20T21:29:03.895Z,15.53
2019-04-20T21:31:34.416Z,15.70
2019-04-20T21:34:10.468Z,17.73
2019-04-20T21:36:35.254Z,14.93
2019-04-20T21:39:08.650Z,19.50
2019-04-20T21:41:40.809Z,17.53
2019-04-20T21:44:15.616Z,17.27
2019-04-20T21:46:45.760Z,15.40
2019-04-20T21:49:27.782Z,12.77
2019-04-20T21:51:50.314Z,21.13
2019-04-20T21:54:15.986Z,12.40
2019-04-20T21:56:53.861Z,12.33
2019-04-20T21:59:24.076Z,19.93
2019-04-20T22:01:58.591Z,24.20
2019-04-20T22:04:22.473Z,16.53
2019-04-20T22:06:52.028Z,16.20
2019-04-20T22:09:25.167Z,13.90
2019-04-20T22:11:53.908Z,16.90
2019-04-20T22:14:26.190Z,19.00
2019-04-20T22:16:56.871Z,13.73
2019-04-20T22:19:36.696Z,16.13
2019-04-20T22:22:08.467Z,20.33
2019-04-20T22:24:46.531Z,19.07
2019-04-20T22:27:06.250Z,22.50
2019-04-20T22:29:32.263Z,22.50
2019-04-20T22:32:11.285Z,30.00
2019-04-20T22:34:37.686Z,33.27
2019-04-20T22:37:08.527Z,29.17
2019-04-20T22:39:45.670Z,29.83
2019-04-20T22:42:14.382Z,17.90
2019-04-20T22:44:43.199Z,26.40
2019-04-20T22:47:20.797Z,13.87
2019-04-20T22:50:03.389Z,15.10
2019-04-20T22:52:29.369Z,20.93
2019-04-20T22:55:10.098Z,40.93
2019-04-20T22:57:31.616Z,28.30
2019-04-20T22:59:56.885Z,43.90
2019-04-20T23:02:22.975Z,45.73
2019-04-20T23:04:53.158Z,38.03
2019-04-20T23:07:23.043Z,45.30
2019-04-20T23:09:56.095Z,44.50
2019-04-20T23:12:26.924Z,40.23
2019-04-20T23:14:56.491Z,28.90
2019-04-20T23:17:33.471Z,22.90
2019-04-20T23:20:00.947Z,20.37
2019-04-20T23:22:36.918Z,23.60
2019-04-20T23:25:00.726Z,25.40
2019-04-20T23:27:32.128Z,19.83
2019-04-20T23:30:05.892Z,25.43
2019-04-20T23:32:33.842Z,28.67
2019-04-20T23:35:11.248Z,28.80
2019-04-20T23:37:38.536Z,27.23
2019-04-20T23:40:10.052Z,28.90
2019-04-20T23:42:51.600Z,25.57
2019-04-20T23:45:40.509Z,27.77
2019-04-20T23:48:10.460Z,27.70
2019-04-20T23:50:56.264Z,26.63
2019-04-20T23:53:28.500Z,26.87
2019-04-20T23:55:43.643Z,35.43
2019-04-20T23:58:14.708Z,30.40
